x

South Of St. Thomas, Vi (41051) Weather Station

8:50am - Wed 30th Jul 2014 All times are AST. -4 hours from GMT.

  • Wind
    16mph, 18mph gusts
  • Air Temp 83°f
  • Sea Pressure 1016.9mb
  • South Of St. Thomas, Vi
  • South Of St. Thomas, Vi

More Historic Weather Station data

Upgrade to MSW Pro to gain access to the past 30 days of data for over 8000 Wavebouys and Weather Stations around the globe.

Join Pro

Comparision Forecast

View Surf forecast
   
Wed 07/30 8:50am  -   -  16 18 mph 1016.9mb - 83f
8:40am  -   -  13 18 mph 1016.8mb - 83f
8:30am  -   -  13 18 mph 1016.8mb - 83f
8:20am  -   -  13 16 mph 1016.8mb - 83f
8:10am  -   -  11 13 mph 1016.8mb - 83f
7:30am  -   -  13 18 mph 1016.4mb - 83f
7:20am  -   -  13 16 mph 1016.4mb - 83f
7:10am  -   -  13 16 mph 1016.4mb - 83f
3:20am  -   -  13 16 mph 1016.2mb - 82f
3:10am  -   -  13 16 mph 1016.2mb - 82f
3:00am 1.6ft 4s 13 16 mph 1016.2mb 83f 82f
2:00am 2ft 3s 7 9 mph 1016.7mb 83f 80f
1:50am  -   -  9 11 mph 1016.7mb - 80f
1:40am  -   -  13 16 mph 1016.6mb - 80f
1:30am  -   -  18 20 mph 1016.7mb - 80f
1:20am  -   -  20 22 mph 1016.7mb - 80f
1:10am  -   -  20 22 mph 1016.8mb - 81f
1:00am 2ft 3s 18 22 mph 1017mb 83f 82f
Tue 07/29 11:50pm  -   -  13 16 mph 1017.4mb - 83f
11:40pm  -   -  13 16 mph 1017.5mb - 83f
11:30pm  -   -  13 16 mph 1017.5mb - 83f
11:20pm  -   -  13 16 mph 1017.6mb - 83f
11:10pm  -   -  11 16 mph 1017.7mb - 83f
11:00pm 2ft 4s 11 13 mph 1017.7mb 83f 83f
10:50pm  -   -  13 16 mph 1017.6mb - 83f
10:40pm  -   -  11 16 mph 1017.6mb - 83f
10:30pm  -   -  11 16 mph 1017.7mb - 83f
10:20pm  -   -  13 16 mph 1017.6mb - 83f
10:10pm  -   -  13 16 mph 1017.5mb - 83f
10:00pm 2ft 4s 16 18 mph 1017.4mb 83f 83f
9:40pm  -   -  13 16 mph 1017.2mb - 83f
9:30pm  -   -  13 16 mph 1017.1mb - 83f
9:20pm  -   -  13 16 mph 1016.9mb - 83f
9:10pm  -   -  11 13 mph 1016.9mb - 83f
9:00pm 2ft 4s 11 13 mph 1016.8mb 83f 83f
8:50pm  -   -  11 13 mph 1016.8mb - 83f
8:40pm  -   -  11 13 mph 1016.7mb - 83f
8:30pm  -   -  11 13 mph 1016.5mb - 83f
8:20pm  -   -  11 13 mph 1016.3mb - 83f
8:10pm  -   -  13 16 mph 1016.2mb - 83f
8:00pm 2ft 4s 13 16 mph 1016.1mb 83f 83f
7:50pm  -   -  13 16 mph 1016.1mb - 83f
7:40pm  -   -  13 16 mph 1016.1mb - 83f
7:30pm  -   -  11 16 mph 1016.1mb - 83f
7:20pm  -   -  13
mph
1016mb - 83f
7:10pm  -   -  11 13 mph 1016mb - 83f
6:00pm 2ft 4s 11 13 mph 1015.5mb 84f 83f
5:50pm  -   -  11 13 mph 1015.5mb - 83f
5:40pm  -   -  9 11 mph 1015.6mb - 83f
5:30pm  -   -  11 13 mph 1015.6mb - 83f
5:20pm  -   -  11 13 mph 1015.5mb - 83f
5:00pm 2ft 3s 11 13 mph 1015.5mb 84f 84f
3:30pm  -   -  11 16 mph 1015.5mb - 83f
3:20pm  -   -  13 16 mph 1015.5mb - 84f
3:10pm  -   -  13 16 mph 1015.5mb - 84f
3:00pm 2ft 4s 13 16 mph 1015.6mb 84f 84f
2:50pm  -   -  13 16 mph 1015.8mb - 83f
2:40pm  -   -  13 16 mph 1015.9mb - 83f
2:30pm  -   -  11 13 mph 1016mb - 83f
2:20pm  -   -  11 13 mph 1016.1mb - 83f
2:10pm  -   -  11 13 mph 1016.2mb - 83f
2:00pm 2.5ft 4s 11 13 mph 1016.2mb 84f 83f
1:30pm  -   -  11 13 mph 1016.7mb - 83f
1:20pm  -   -  11 13 mph 1016.8mb - 83f
1:10pm  -   -  11 13 mph 1016.9mb - 83f
1:00pm 2.5ft 4s 11 13 mph 1016.9mb 84f 83f
12:40pm  -   -  13 16 mph 1016.9mb - 83f
12:30pm  -   -  11 13 mph 1016.9mb - 83f
12:20pm  -   -  11 13 mph 1017mb - 83f
12:10pm  -   -  13 16 mph 1017mb - 83f
12:00pm 2.5ft 4s 13 16 mph 1017mb 83f 83f
11:50am  -   -  13 16 mph 1017mb - 83f
11:40am  -   -  13 16 mph 1017mb - 83f
11:30am  -   -  11 13 mph 1017mb - 83f
11:20am  -   -  11 16 mph 1017.1mb - 83f
11:10am  -   -  13 16 mph 1017.1mb - 83f
11:00am 2.5ft 4s 13 16 mph 1017.1mb 83f 83f
10:20am  -   -  13 16 mph 1017.3mb - 83f
10:10am  -   -  13 16 mph 1017.2mb - 83f
10:00am 2.5ft 4s 13 18 mph 1017.2mb 83f 83f
9:20am  -   -  16 18 mph 1017.1mb - 83f
9:10am  -   -  13 18 mph 1017.1mb - 83f
9:00am 2.5ft 4s 9 11 mph 1017.1mb 83f 82f
8:10am  -   -  11 13 mph 1016.8mb - 83f
8:00am 2.5ft 4s 13 16 mph 1016.7mb 83f 82f
6:50am  -   -  16 18 mph 1016.5mb - 83f
6:30am  -   -  13 16 mph 1016.2mb - 82f
6:20am  -   -  13 18 mph 1016.2mb - 82f
6:10am  -   -  13 18 mph 1016.1mb - 82f
6:00am 2.5ft 3s 16 18 mph 1016mb 83f 82f
5:50am  -   -  13 18 mph 1015.9mb - 82f
5:40am  -   -  13 18 mph 1015.9mb - 82f
5:30am  -   -  13 16 mph 1015.8mb - 82f
5:20am  -   -  13 18 mph 1015.8mb - 82f
5:10am  -   -  16 18 mph 1015.8mb - 82f
4:00am 2.5ft 3s 13 16 mph 1015.5mb 83f 82f
3:50am  -   -  13 18 mph 1015.5mb - 82f
3:40am  -   -  16 18 mph 1015.5mb - 82f
3:30am  -   -  16 18 mph 1015.4mb - 82f
3:20am  -   -  13 18 mph 1015.5mb - 82f
3:10am  -   -  16 18 mph 1015.6mb - 83f
3:00am 2ft 3s 13 18 mph 1015.6mb 83f 82f
2:50am  -   -  13 18 mph 1015.7mb - 82f
2:30am  -   -  16 18 mph 1015.8mb - 82f
2:20am  -   -  16 18 mph 1015.9mb - 83f
2:10am  -   -  16 18 mph 1015.9mb - 82f
2:00am 2.5ft 3s 16 18 mph 1016.1mb 83f 82f
1:40am  -   -  16 20 mph 1016.3mb - 82f
1:30am  -   -  16 18 mph 1016.4mb - 82f
1:20am  -   -  11 13 mph 1016.6mb - 82f
1:10am  -   -  13 16 mph 1016.7mb - 82f
1:00am 2.5ft 4s 13 16 mph 1016.8mb 83f 82f
12:50am  -   -  13 16 mph 1016.9mb - 82f
12:40am  -   -  13 16 mph 1017mb - 82f
12:30am  -   -  13 16 mph 1017mb - 82f
12:20am  -   -  13 16 mph 1017.2mb - 82f
12:00am 2.5ft 3s 16 18 mph 1017.3mb 83f 82f
Mon 07/28 11:50pm  -   -  16 18 mph 1017.4mb - 82f
11:40pm  -   -  16 20 mph 1017.4mb - 82f
11:30pm  -   -  18 20 mph 1017.5mb - 82f
11:20pm  -   -  16 20 mph 1017.5mb - 83f
11:10pm  -   -  13 16 mph 1017.6mb - 83f
11:00pm 2.5ft 3s 13 18 mph 1017.6mb 83f 83f
10:30pm  -   -  13 16 mph 1017.8mb - 83f
10:20pm  -   -  16 18 mph 1017.8mb - 83f
10:10pm  -   -  18 22 mph 1017.8mb - 82f
10:00pm 2ft 4s 11 16 mph 1017.8mb 83f 83f
9:10pm  -   -  11 16 mph 1017.6mb - 83f
9:00pm 2.5ft 4s 13 16 mph 1017.6mb 83f 83f
8:30pm  -   -  13 16 mph 1017.5mb - 83f
8:00pm 2ft 4s 13 16 mph 1017.2mb 83f 83f
7:50pm  -   -  13 16 mph 1017.2mb - 83f
7:40pm  -   -  13 16 mph 1017mb - 83f
7:30pm  -   -  13
mph
1016.8mb - 83f
7:20pm  -   -  13 16 mph 1016.7mb - 83f
7:10pm  -   -  13 16 mph 1016.6mb - 83f
7:00pm 2.5ft 4s 11 16 mph 1016.7mb 83f 83f
6:30pm  -   -  13 16 mph 1016.5mb - 83f
6:20pm  -   -  13 16 mph 1016.5mb - 83f
6:10pm  -   -  13 16 mph 1016.5mb - 83f
6:00pm 2.5ft 4s 13 16 mph 1016.4mb 84f 83f
5:50pm  -   -  13 16 mph 1016.4mb - 83f
5:40pm  -   -  11 16 mph 1016.4mb - 83f
5:30pm  -   -  13 16 mph 1016.3mb - 83f
5:20pm  -   -  11 13 mph 1016.4mb - 83f
5:10pm  -   -  11 16 mph 1016.4mb - 83f
5:00pm 2.5ft 4s 13 16 mph 1016.4mb 84f 83f
4:50pm  -   -  13 16 mph 1016.3mb - 83f
4:40pm  -   -  13 16 mph 1016.4mb - 83f
4:30pm  -   -  13 16 mph 1016.4mb - 83f
4:20pm  -   -  13 16 mph 1016.4mb - 83f
4:10pm  -   -  13 16 mph 1016.5mb - 83f
4:00pm 2.5ft 3s 13 16 mph 1016.5mb 84f 83f
3:40pm  -   -  16 18 mph 1016.7mb - 83f
3:30pm  -   -  16 18 mph 1016.6mb - 83f
3:20pm  -   -  16 18 mph 1016.5mb - 83f
3:10pm  -   -  16 18 mph 1016.6mb - 83f
3:00pm 2.5ft 4s 13 16 mph 1016.8mb 84f 83f
2:50pm  -   -  13 16 mph 1016.8mb - 83f
2:40pm  -   -  13 16 mph 1016.9mb - 83f
2:30pm  -   -  13 16 mph 1017mb - 83f
2:20pm  -   -  13 16 mph 1017.1mb - 83f
2:10pm  -   -  13 16 mph 1017.1mb - 83f
2:00pm 2.5ft 4s 13 16 mph 1017.2mb 84f 83f
1:50pm  -   -  13 16 mph 1017.4mb - 83f
1:40pm  -   -  13 16 mph 1017.5mb - 83f
1:30pm  -   -  13 16 mph 1017.6mb - 83f
1:20pm  -   -  13 16 mph 1017.7mb - 83f
1:10pm  -   -  13 16 mph 1017.7mb - 83f
1:00pm 2.5ft 4s 13 16 mph 1017.6mb 84f 83f
12:50pm  -   -  13 18 mph 1017.6mb - 83f
12:40pm  -   -  13 18 mph 1017.7mb - 83f
12:30pm  -   -  13 16 mph 1017.8mb - 83f
12:20pm  -   -  13 18 mph 1017.8mb - 83f
12:10pm  -   -  16 18 mph 1017.9mb - 83f
12:00pm 2.5ft 4s 13 18 mph 1017.9mb 83f 83f
11:30am  -   -  13 16 mph 1018mb - 83f
11:20am  -   -  13 18 mph 1018.1mb - 83f
11:10am  -   -  13 16 mph 1018.2mb - 83f
11:00am 2.5ft 4s 13 16 mph 1018.3mb 83f 83f
10:40am  -   -  13 16 mph 1018.3mb - 83f
10:30am  -   -  11 13 mph 1018.3mb - 83f
10:20am  -   -  11 13 mph 1018.3mb - 83f
10:10am  -   -  11 13 mph 1018.3mb - 83f
10:00am 2.5ft 4s 11 13 mph 1018.4mb 83f 83f
9:50am  -   -  11 13 mph 1018.4mb - 83f
9:40am  -   -  11 13 mph 1018.4mb - 83f
9:30am  -   -  11 13 mph 1018.4mb - 83f
8:50am  -   -  9 13 mph 1018.3mb - 83f
8:20am  -   -  9 11 mph 1018.3mb - 83f
8:10am  -   -  9 11 mph 1018.2mb - 83f
8:00am 2ft 4s 9 11 mph 1018.2mb 83f 83f
2:50am  -   -  11 13 mph 1017.7mb - 82f
1:50am  -   -  11 13 mph 1017.8mb - 82f
12:50am  -   -  13 16 mph 1018.4mb - 83f
Sun 07/27 11:50pm  -   -  11 16 mph 1018.8mb - 83f
11:40pm  -   -  9 11 mph 1018.8mb - 83f
11:30pm  -   -  11 13 mph 1018.8mb - 83f
11:20pm  -   -  11 13 mph 1019mb - 83f
11:10pm  -   -  11 13 mph 1019.1mb - 83f
11:00pm 2.5ft 4s 11 16 mph 1019.2mb 83f 83f
10:50pm  -   -  11 13 mph 1019.2mb - 83f
10:40pm  -   -  11 13 mph 1019.2mb - 83f
10:30pm  -   -  11 13 mph 1019.2mb - 83f
10:20pm  -   -  11 13 mph 1019.2mb - 83f
10:10pm  -   -  11 13 mph 1019.2mb - 83f
10:00pm 2.5ft 4s 11 13 mph 1019.2mb 83f 83f
9:50pm  -   -  11 13 mph 1019.2mb - 83f
9:40pm  -   -  11 13 mph 1019.1mb - 83f
9:30pm  -   -  11 13 mph 1019mb - 83f
9:20pm  -   -  11 13 mph 1018.9mb - 83f
9:10pm  -   -  11 13 mph 1018.9mb - 83f
8:20pm  -   -  11
mph
1018.6mb - 83f
8:10pm  -   -  11 13 mph 1018.6mb - 83f
8:00pm 2.5ft 4s 11 13 mph 1018.5mb 83f 83f
7:30pm  -   -  13 18 mph 1018.4mb - 84f
7:20pm  -   -  13 16 mph 1018.3mb - 84f
7:10pm  -   -  13 16 mph 1018.3mb - 84f
7:00pm 2.5ft 4s 13 16 mph 1018.2mb 83f 84f
6:50pm  -   -  13 16 mph 1018.1mb - 84f
6:40pm  -   -  13 16 mph 1017.9mb - 84f
6:30pm  -   -  13 16 mph 1017.7mb - 84f
6:20pm  -   -  13 16 mph 1017.6mb - 84f
6:10pm  -   -  13 16 mph 1017.4mb - 84f
6:00pm 2.5ft 4s 13 16 mph 1017.3mb 83f 84f
5:50pm  -   -  13 16 mph 1017.2mb - 84f
5:40pm  -   -  13 16 mph 1017.1mb - 84f
5:30pm  -   -  13 16 mph 1017.1mb - 84f
5:20pm  -   -  13 16 mph 1017.1mb - 84f
5:10pm  -   -  13 16 mph 1017.1mb - 84f
5:00pm 2.5ft 4s 13 16 mph 1017mb 83f 84f
4:50pm  -   -  13 18 mph 1017mb - 84f
4:40pm  -   -  16 18 mph 1017mb - 84f
4:30pm  -   -  13 16 mph 1016.9mb - 84f
4:20pm  -   -  16 18 mph 1016.9mb - 84f
4:10pm  -   -  16 18 mph 1016.9mb - 84f
4:00pm 2.5ft 4s 16 18 mph 1016.9mb 84f 84f
3:40pm  -   -  13 16 mph 1016.9mb - 84f
3:30pm  -   -  13 18 mph 1017mb - 84f
3:20pm  -   -  13 18 mph 1017mb - 84f
3:10pm  -   -  13 16 mph 1017.1mb - 84f
3:00pm 2.5ft 4s 16 18 mph 1017.1mb 83f 84f
2:50pm  -   -  13 16 mph 1017.2mb - 84f
2:40pm  -   -  13 16 mph 1017.3mb - 84f
2:30pm  -   -  13 16 mph 1017.3mb - 84f
2:20pm  -   -  13 16 mph 1017.3mb - 84f
2:10pm  -   -  13 16 mph 1017.4mb - 84f
2:00pm 3ft 4s 13 16 mph 1017.5mb 83f 84f
1:40pm  -   -  16 18 mph 1017.6mb - 83f
1:30pm  -   -  13 18 mph 1017.7mb - 84f
1:20pm  -   -  13 18 mph 1017.9mb - 84f
1:10pm  -   -  13 16 mph 1018mb - 84f
1:00pm 3.5ft 4s 13 16 mph 1018.1mb 83f 84f
12:30pm  -   -  13 16 mph 1018.2mb - 84f
12:20pm  -   -  13 18 mph 1018.2mb - 83f
12:10pm  -   -  13 16 mph 1018.2mb - 84f
12:00pm 3.5ft 4s 13 18 mph 1018.3mb 83f 84f
11:40am  -   -  16 18 mph 1018.3mb - 83f
11:30am  -   -  16 18 mph 1018.3mb - 83f
11:20am  -   -  16 18 mph 1018.3mb - 83f
11:10am  -   -  16 18 mph 1018.3mb - 83f
11:00am 3.5ft 4s 16 18 mph 1018.4mb 83f 83f
10:50am  -   -  16 20 mph 1018.4mb - 83f
10:40am  -   -  16 20 mph 1018.5mb - 84f
10:30am  -   -  16 18 mph 1018.5mb - 84f
10:20am  -   -  16 18 mph 1018.5mb - 84f
10:10am  -   -  16 20 mph 1018.5mb - 84f
10:00am 3.5ft 4s 16 20 mph 1018.5mb 83f 84f
9:30am  -   -  16 18 mph 1018.5mb - 84f
9:20am  -   -  13 16 mph 1018.5mb - 84f
9:10am  -   -  16 18 mph 1018.4mb - 83f
9:00am 3.5ft 4s 16 18 mph 1018.4mb 83f 83f
8:40am  -   -  16 18 mph 1018.3mb - 83f
8:30am  -   -  16 18 mph 1018.2mb - 83f
6:50am  -   -  16 20 mph 1017.3mb - 83f
5:50am  -   -  13 16 mph 1017.1mb - 83f
Sat 07/26 11:20pm  -   -  16 18 mph 1018.4mb - 83f
11:10pm  -   -  16 18 mph 1018.5mb - 83f
10:40pm  -   -  16 20 mph 1018.5mb - 83f
10:30pm  -   -  16 18 mph 1018.5mb - 83f
10:20pm  -   -  16 18 mph 1018.5mb - 83f
10:10pm  -   -  16 20 mph 1018.5mb - 83f
10:00pm 3.5ft 4s 18 20 mph 1018.4mb 83f 83f
9:50pm  -   -  16 20 mph 1018.3mb - 83f
9:40pm  -   -  16 18 mph 1018.2mb - 83f
9:30pm  -   -  16 20 mph 1018.1mb - 83f
9:20pm  -   -  18 20 mph 1018.1mb - 83f
9:10pm  -   -  18 20 mph 1018mb - 83f
9:00pm 3.5ft 5s 18 20 mph 1017.9mb 83f 83f
8:40pm  -   -  18 22 mph 1017.7mb - 83f
8:30pm  -   -  18 22 mph 1017.6mb - 83f
8:20pm  -   -  16 20 mph 1017.4mb - 83f
8:10pm  -   -  18 20 mph 1017.3mb - 84f
8:00pm 3.5ft 5s 16 20 mph 1017.2mb 83f 84f
7:50pm  -   -  16 20 mph 1017.2mb - 84f
7:40pm  -   -  16 18 mph 1017.2mb - 84f
7:30pm  -   -  16 20 mph 1017mb - 84f
7:20pm  -   -  16 20 mph 1016.9mb - 84f
7:10pm  -   -  18 20 mph 1016.8mb - 84f
7:00pm 3.5ft 4s 18 22 mph 1016.8mb 83f 84f
6:20pm  -   -  18 22 mph 1016.3mb - 84f
6:10pm  -   -  18 22 mph 1016.2mb - 84f
6:00pm 3.5ft 4s 16 22 mph 1016.1mb 83f 84f
5:20pm  -   -  18 22 mph 1015.9mb - 84f
5:10pm  -   -  18 20 mph 1015.8mb - 84f
5:00pm 3.5ft 4s 18 22 mph 1015.7mb 83f 84f
4:40pm  -   -  18 20 mph 1015.9mb - 84f
4:30pm  -   -  18 20 mph 1015.9mb - 84f
4:20pm  -   -  18 22 mph 1015.9mb - 84f
4:10pm  -   -  18 20 mph 1015.9mb - 84f
4:00pm 3.5ft 4s 18 22 mph 1015.9mb 83f 84f
3:50pm  -   -  16 20 mph 1015.8mb - 84f
3:40pm  -   -  18 20 mph 1015.9mb - 84f
3:30pm  -   -  18 22 mph 1015.9mb - 84f
3:20pm  -   -  18 20 mph 1016mb - 84f
3:10pm  -   -  18 22 mph 1016.1mb - 84f
3:00pm 3.5ft 4s 18 22 mph 1016.2mb 83f 84f
2:20pm  -   -  16 18 mph 1016.6mb - 84f
2:10pm  -   -  16 18 mph 1016.7mb - 84f
2:00pm 4ft 5s 16 18 mph 1016.7mb 83f 84f